Time;durP1;ratioP1;P1;durP2;ratioP2;P2;SDS_P1;SDS_P2;PMS_P1;PMS_P2;Temp;Humidity;BMP_temperature;BMP_pressure;BME280_temperature;BME280_humidity;BME280_pressure;Samples;Min_cycle;Max_cycle;Signal;HPM_P1;HPM_P2
2022/08/03 00:01:32;;;;;;;;;;;24.40;65.20;;;;;;5091323;28;19912;-78
2022/08/03 00:03:58;;;;;;;;;;;24.30;65.40;;;;;;5091750;28;19908;-78
2022/08/03 00:06:23;;;;;;;;;;;24.30;65.60;;;;;;5091010;28;20057;-69
2022/08/03 00:08:49;;;;;;;;;;;24.20;65.70;;;;;;5090972;28;19916;-70
2022/08/03 00:11:14;;;;;;;;;;;24.20;65.70;;;;;;5090012;28;19918;-69
2022/08/03 00:13:40;;;;;;;;;;;24.10;65.80;;;;;;5088096;28;19912;-70
2022/08/03 00:16:06;;;;;;;;;;;24.10;65.90;;;;;;5094247;28;19907;-69
2022/08/03 00:18:31;;;;;;;;;;;24.00;66.00;;;;;;5087533;28;19912;-69
2022/08/03 00:20:57;;;;;;;;;;;24.00;66.30;;;;;;5094801;28;20367;-70
2022/08/03 00:23:22;;;;;;;;;;;23.90;66.30;;;;;;5094779;28;19971;-70
2022/08/03 00:25:48;;;;;;;;;;;23.90;66.50;;;;;;5086907;28;19912;-70
2022/08/03 00:28:13;;;;;;;;;;;23.80;66.70;;;;;;5090215;28;19912;-70
2022/08/03 00:30:39;;;;;;;;;;;23.80;66.70;;;;;;5088839;28;19969;-70
2022/08/03 00:33:04;;;;;;;;;;;23.80;66.70;;;;;;5087601;28;19946;-70
2022/08/03 00:35:30;;;;;;;;;;;23.70;66.80;;;;;;5077793;28;19958;-79
2022/08/03 00:37:56;;;;;;;;;;;23.70;66.80;;;;;;5093370;28;19915;-79
2022/08/03 00:40:21;;;;;;;;;;;23.60;66.80;;;;;;5097326;28;20224;-79
2022/08/03 00:42:49;;;;;;;;;;;23.60;66.80;;;;;;5070197;28;19916;-70
2022/08/03 00:45:15;;;;;;;;;;;23.60;67.10;;;;;;5088737;28;20321;-79
2022/08/03 00:47:41;;;;;;;;;;;23.60;67.20;;;;;;5094584;28;19916;-79
2022/08/03 00:50:07;;;;;;;;;;;23.50;67.10;;;;;;5092482;28;20274;-70
2022/08/03 00:52:33;;;;;;;;;;;23.50;67.30;;;;;;5078771;28;19924;-70
2022/08/03 00:54:59;;;;;;;;;;;23.40;67.30;;;;;;5082910;28;19966;-70
2022/08/03 00:57:25;;;;;;;;;;;23.40;67.30;;;;;;5087494;28;19927;-70
2022/08/03 00:59:50;;;;;;;;;;;23.40;67.20;;;;;;5073601;28;19913;-70
2022/08/03 01:02:16;;;;;;;;;;;23.40;67.40;;;;;;5087630;28;19931;-70
2022/08/03 01:04:41;;;;;;;;;;;23.30;67.50;;;;;;5068951;28;19950;-70
2022/08/03 01:07:07;;;;;;;;;;;23.20;67.50;;;;;;5073073;28;19919;-70
2022/08/03 01:09:59;;;;;;;;;;;23.20;67.60;;;;;;5082879;28;19953;-70
2022/08/03 01:12:46;;;;;;;;;;;23.20;67.60;;;;;;5068019;28;19969;-70
2022/08/03 01:15:14;;;;;;;;;;;23.20;67.70;;;;;;5090714;28;19985;-70
2022/08/03 01:17:48;;;;;;;;;;;23.10;67.80;;;;;;5094156;28;19916;-70
2022/08/03 01:20:15;;;;;;;;;;;23.10;67.90;;;;;;5092521;28;20029;-70
2022/08/03 01:22:50;;;;;;;;;;;23.10;68.10;;;;;;5092496;28;20381;-70
2022/08/03 01:25:27;;;;;;;;;;;23.00;68.10;;;;;;5093948;28;19918;-70
2022/08/03 01:27:55;;;;;;;;;;;23.00;68.30;;;;;;5096038;28;19912;-70
2022/08/03 01:30:23;;;;;;;;;;;22.90;68.40;;;;;;5088429;28;19916;-70
2022/08/03 01:33:09;;;;;;;;;;;22.90;68.60;;;;;;5097674;28;19911;-70
2022/08/03 01:35:37;;;;;;;;;;;22.80;68.70;;;;;;5083516;28;19916;-80
2022/08/03 01:38:05;;;;;;;;;;;22.80;68.80;;;;;;5091795;28;19912;-70
2022/08/03 01:40:33;;;;;;;;;;;22.80;68.80;;;;;;5089395;28;19927;-70
2022/08/03 01:43:00;;;;;;;;;;;22.80;68.80;;;;;;5085184;28;20293;-69
2022/08/03 01:45:26;;;;;;;;;;;22.70;68.80;;;;;;5092204;28;20469;-69
2022/08/03 01:47:53;;;;;;;;;;;22.70;68.80;;;;;;5090054;28;20356;-80
2022/08/03 01:50:21;;;;;;;;;;;22.70;68.90;;;;;;5094344;28;19916;-70
2022/08/03 01:52:47;;;;;;;;;;;22.70;69.10;;;;;;5092981;28;19935;-79
2022/08/03 01:55:16;;;;;;;;;;;22.70;69.20;;;;;;5089617;28;20264;-80
2022/08/03 01:57:42;;;;;;;;;;;22.70;69.30;;;;;;5090002;28;19912;-69
2022/08/03 02:00:11;;;;;;;;;;;22.60;69.30;;;;;;5092931;28;19977;-69
2022/08/03 02:02:37;;;;;;;;;;;22.60;69.40;;;;;;5074044;28;19931;-80
2022/08/03 02:05:06;;;;;;;;;;;22.60;69.30;;;;;;5100267;28;19912;-80
2022/08/03 02:07:33;;;;;;;;;;;22.60;69.20;;;;;;5098421;28;20398;-80
2022/08/03 02:09:59;;;;;;;;;;;22.60;69.20;;;;;;5092037;28;19919;-80
2022/08/03 02:12:26;;;;;;;;;;;22.60;69.30;;;;;;5089044;28;19931;-69
2022/08/03 02:14:52;;;;;;;;;;;22.60;69.30;;;;;;5103213;27;19921;-69
2022/08/03 02:17:19;;;;;;;;;;;22.60;69.40;;;;;;5092127;28;19951;-69
2022/08/03 02:19:45;;;;;;;;;;;22.60;69.40;;;;;;5091601;28;19943;-80
2022/08/03 02:22:11;;;;;;;;;;;22.60;69.40;;;;;;5087070;28;20339;-69
2022/08/03 02:24:37;;;;;;;;;;;22.60;69.40;;;;;;5096312;28;19926;-69
2022/08/03 02:27:16;;;;;;;;;;;22.50;69.40;;;;;;5090654;28;19912;-69
2022/08/03 02:29:44;;;;;;;;;;;22.50;69.40;;;;;;5094395;28;19922;-69
2022/08/03 02:32:15;;;;;;;;;;;22.50;70.00;;;;;;5106716;28;19916;-80
2022/08/03 02:34:42;;;;;;;;;;;22.50;69.50;;;;;;5093864;28;20447;-80
2022/08/03 02:37:09;;;;;;;;;;;22.40;69.50;;;;;;5089046;28;20002;-80
2022/08/03 02:39:35;;;;;;;;;;;22.40;69.60;;;;;;5089250;28;19916;-80
2022/08/03 02:42:04;;;;;;;;;;;22.40;69.60;;;;;;5090786;28;20458;-69
2022/08/03 02:44:31;;;;;;;;;;;22.40;69.80;;;;;;5070773;28;19920;-69
2022/08/03 02:46:59;;;;;;;;;;;22.30;69.80;;;;;;5092451;28;19928;-69
2022/08/03 02:49:26;;;;;;;;;;;22.30;69.80;;;;;;5091019;28;20028;-69
2022/08/03 02:51:53;;;;;;;;;;;22.30;69.80;;;;;;5090470;28;19928;-69
2022/08/03 02:54:19;;;;;;;;;;;22.30;69.90;;;;;;5085513;28;19961;-69
2022/08/03 02:56:45;;;;;;;;;;;22.20;70.00;;;;;;5091747;28;19918;-69
2022/08/03 02:59:11;;;;;;;;;;;22.20;70.00;;;;;;5090446;28;19917;-70
2022/08/03 03:01:38;;;;;;;;;;;22.20;70.10;;;;;;5085321;28;19979;-70
2022/08/03 03:04:04;;;;;;;;;;;22.20;70.10;;;;;;5063150;28;20367;-70
2022/08/03 03:06:29;;;;;;;;;;;22.20;70.10;;;;;;5086370;28;19920;-70
2022/08/03 03:08:55;;;;;;;;;;;22.20;70.20;;;;;;5082622;28;19912;-70
2022/08/03 03:11:21;;;;;;;;;;;22.10;70.30;;;;;;5092422;28;20014;-70
2022/08/03 03:13:50;;;;;;;;;;;22.10;70.50;;;;;;5089570;28;19999;-70
2022/08/03 03:16:17;;;;;;;;;;;22.00;70.80;;;;;;5092803;28;19940;-70
2022/08/03 03:18:43;;;;;;;;;;;22.00;70.90;;;;;;5089082;28;20011;-67
2022/08/03 03:21:09;;;;;;;;;;;21.90;70.80;;;;;;5093039;28;20583;-68
2022/08/03 03:23:36;;;;;;;;;;;21.90;70.80;;;;;;5091165;28;20424;-68
2022/08/03 03:26:01;;;;;;;;;;;21.90;70.70;;;;;;5086982;28;20410;-80
2022/08/03 03:28:27;;;;;;;;;;;21.90;70.70;;;;;;5084021;28;20174;-80
2022/08/03 03:30:53;;;;;;;;;;;21.90;70.80;;;;;;5091293;28;19965;-68
2022/08/03 03:33:20;;;;;;;;;;;21.90;70.90;;;;;;5096499;28;19965;-68
2022/08/03 03:35:46;;;;;;;;;;;21.90;71.00;;;;;;5092165;28;20421;-68
2022/08/03 03:38:11;;;;;;;;;;;21.90;71.10;;;;;;5091702;28;19920;-68
2022/08/03 03:40:37;;;;;;;;;;;21.90;71.00;;;;;;5095459;28;20266;-68
2022/08/03 03:43:06;;;;;;;;;;;21.80;71.10;;;;;;5101836;28;19912;-68
2022/08/03 03:45:33;;;;;;;;;;;21.80;71.10;;;;;;5083614;28;19916;-68
2022/08/03 03:48:00;;;;;;;;;;;21.80;71.20;;;;;;5096526;28;19907;-80
2022/08/03 03:50:26;;;;;;;;;;;21.70;71.30;;;;;;5098466;28;19920;-80
2022/08/03 03:52:52;;;;;;;;;;;21.70;71.40;;;;;;5102770;28;19935;-80
2022/08/03 03:55:17;;;;;;;;;;;21.70;71.50;;;;;;5101240;28;19916;-68
2022/08/03 03:57:45;;;;;;;;;;;21.70;71.50;;;;;;5102792;28;19920;-68
2022/08/03 04:00:12;;;;;;;;;;;21.70;71.50;;;;;;5103688;28;20304;-67
2022/08/03 04:02:38;;;;;;;;;;;21.70;71.50;;;;;;5103214;28;19924;-81
2022/08/03 04:10:59;;;;;;;;;;;21.60;71.80;;;;;;5105740;28;20368;-81
2022/08/03 04:13:28;;;;;;;;;;;21.60;71.90;;;;;;5094686;28;19916;-81
2022/08/03 04:15:56;;;;;;;;;;;21.60;72.00;;;;;;5101695;28;19916;-81
2022/08/03 04:18:23;;;;;;;;;;;21.60;72.20;;;;;;5103379;28;19948;-81
2022/08/03 04:20:49;;;;;;;;;;;21.60;72.30;;;;;;5104142;28;19920;-81
2022/08/03 04:23:15;;;;;;;;;;;21.60;72.30;;;;;;5098420;28;19920;-69
2022/08/03 04:25:42;;;;;;;;;;;21.60;72.30;;;;;;5099745;27;19922;-69
2022/08/03 04:28:08;;;;;;;;;;;21.60;72.20;;;;;;5100627;28;19916;-69
2022/08/03 04:30:36;;;;;;;;;;;21.70;72.20;;;;;;5101597;28;20378;-81
2022/08/03 04:33:02;;;;;;;;;;;21.60;72.20;;;;;;5104909;28;19959;-81
2022/08/03 04:35:28;;;;;;;;;;;21.70;72.20;;;;;;5104279;28;19965;-69
2022/08/03 04:37:55;;;;;;;;;;;21.70;72.20;;;;;;5101219;28;20285;-81
2022/08/03 04:40:24;;;;;;;;;;;21.70;72.30;;;;;;5105278;28;19990;-81
2022/08/03 04:42:49;;;;;;;;;;;21.70;72.40;;;;;;5110849;28;19912;-69
2022/08/03 04:45:17;;;;;;;;;;;21.70;72.80;;;;;;5077455;28;19970;-69
2022/08/03 04:47:43;;;;;;;;;;;21.80;72.80;;;;;;5085803;28;19952;-81
2022/08/03 04:50:08;;;;;;;;;;;21.90;73.00;;;;;;5095920;28;19971;-69
2022/08/03 04:52:34;;;;;;;;;;;22.00;72.90;;;;;;5098574;28;19924;-81
2022/08/03 04:54:59;;;;;;;;;;;22.10;72.70;;;;;;5098386;28;19908;-81
2022/08/03 04:57:25;;;;;;;;;;;22.10;72.60;;;;;;5093932;28;19920;-68
2022/08/03 04:59:53;;;;;;;;;;;22.20;72.80;;;;;;5077632;28;20313;-68
2022/08/03 05:02:22;;;;;;;;;;;22.30;72.80;;;;;;5092336;28;19916;-81
2022/08/03 05:04:48;;;;;;;;;;;22.30;72.70;;;;;;5092944;28;19996;-80
2022/08/03 05:07:14;;;;;;;;;;;22.40;72.60;;;;;;5085106;28;19916;-68
2022/08/03 05:09:40;;;;;;;;;;;22.40;73.00;;;;;;5092754;28;19916;-68
2022/08/03 05:12:05;;;;;;;;;;;22.40;73.00;;;;;;5093614;28;19912;-69
2022/08/03 05:14:31;;;;;;;;;;;22.50;73.40;;;;;;5096007;28;19923;-69
2022/08/03 05:16:57;;;;;;;;;;;22.50;73.60;;;;;;5095539;28;19947;-69
2022/08/03 05:19:22;;;;;;;;;;;22.50;73.70;;;;;;5092887;28;19923;-69
2022/08/03 05:21:48;;;;;;;;;;;22.50;73.60;;;;;;5095237;28;19919;-69
2022/08/03 05:24:14;;;;;;;;;;;22.60;73.60;;;;;;5095157;28;20394;-81
2022/08/03 05:26:39;;;;;;;;;;;22.60;73.40;;;;;;5089606;28;19955;-81
2022/08/03 05:29:05;;;;;;;;;;;22.70;73.20;;;;;;5095177;28;19916;-69
2022/08/03 05:31:30;;;;;;;;;;;22.70;73.10;;;;;;5085339;28;19920;-69
2022/08/03 05:33:56;;;;;;;;;;;22.80;73.40;;;;;;5079515;28;19916;-69
2022/08/03 05:36:22;;;;;;;;;;;22.80;73.20;;;;;;5093013;28;19954;-70
2022/08/03 05:38:47;;;;;;;;;;;22.90;73.20;;;;;;5093340;28;19912;-70
2022/08/03 05:41:13;;;;;;;;;;;23.00;73.00;;;;;;5088989;28;19922;-69
2022/08/03 05:43:38;;;;;;;;;;;23.00;72.90;;;;;;5103197;28;20333;-69
2022/08/03 05:46:04;;;;;;;;;;;23.00;72.60;;;;;;5093334;28;19915;-69
2022/08/03 05:48:29;;;;;;;;;;;23.10;72.60;;;;;;5095801;28;19916;-69
2022/08/03 05:50:55;;;;;;;;;;;23.10;72.50;;;;;;5085573;28;19923;-70
2022/08/03 05:53:20;;;;;;;;;;;23.20;72.50;;;;;;5106643;28;19966;-68
2022/08/03 05:55:46;;;;;;;;;;;23.20;72.30;;;;;;5089615;28;20387;-68
2022/08/03 05:58:12;;;;;;;;;;;23.30;72.10;;;;;;5098521;28;19915;-69
2022/08/03 06:00:37;;;;;;;;;;;23.30;72.00;;;;;;5090061;28;19917;-68
2022/08/03 06:03:03;;;;;;;;;;;23.30;71.90;;;;;;5092055;28;20381;-68
2022/08/03 06:05:29;;;;;;;;;;;23.30;71.80;;;;;;5082241;28;19920;-68
2022/08/03 06:07:54;;;;;;;;;;;23.40;71.80;;;;;;5104086;28;19912;-69
2022/08/03 06:10:20;;;;;;;;;;;23.40;71.30;;;;;;5089489;28;20023;-68
2022/08/03 06:12:48;;;;;;;;;;;23.50;71.40;;;;;;5097708;28;20010;-69
2022/08/03 06:15:14;;;;;;;;;;;23.50;71.30;;;;;;5090006;28;19931;-68
2022/08/03 06:17:43;;;;;;;;;;;23.50;71.30;;;;;;5096687;28;19918;-68
2022/08/03 06:20:09;;;;;;;;;;;23.40;71.20;;;;;;5091897;28;19916;-69
2022/08/03 06:22:35;;;;;;;;;;;23.50;71.30;;;;;;5095639;28;20173;-69
2022/08/03 06:25:01;;;;;;;;;;;23.50;71.10;;;;;;5099846;28;19970;-69
2022/08/03 06:27:26;;;;;;;;;;;23.50;70.90;;;;;;5094414;28;20417;-69
2022/08/03 06:29:52;;;;;;;;;;;23.60;70.80;;;;;;5092450;28;20534;-69
2022/08/03 06:32:21;;;;;;;;;;;23.60;70.80;;;;;;5094298;28;19916;-69
2022/08/03 06:34:47;;;;;;;;;;;23.60;70.70;;;;;;5098615;28;20425;-69
2022/08/03 06:37:13;;;;;;;;;;;23.70;70.40;;;;;;5103301;28;19911;-69
2022/08/03 06:39:38;;;;;;;;;;;23.70;70.20;;;;;;5091750;28;20013;-69
2022/08/03 06:42:04;;;;;;;;;;;23.70;70.10;;;;;;5093502;28;19924;-69
2022/08/03 06:44:30;;;;;;;;;;;23.80;70.20;;;;;;5077479;28;19934;-69
2022/08/03 06:46:55;;;;;;;;;;;23.80;70.00;;;;;;5095492;28;20379;-69
2022/08/03 06:49:21;;;;;;;;;;;23.90;69.80;;;;;;5102203;28;19942;-69
2022/08/03 06:51:47;;;;;;;;;;;23.90;69.70;;;;;;5107395;28;19927;-69
2022/08/03 06:54:12;;;;;;;;;;;24.00;69.60;;;;;;5101682;28;19936;-69
2022/08/03 06:56:38;;;;;;;;;;;24.00;69.50;;;;;;5098240;28;19908;-69
2022/08/03 06:59:03;;;;;;;;;;;24.10;69.30;;;;;;5097481;28;19915;-69
2022/08/03 07:01:29;;;;;;;;;;;24.00;69.20;;;;;;5103825;28;19923;-69
2022/08/03 07:03:55;;;;;;;;;;;24.20;69.00;;;;;;5082361;28;19916;-69
2022/08/03 07:06:20;;;;;;;;;;;24.20;68.70;;;;;;5081627;28;19916;-69
2022/08/03 07:08:46;;;;;;;;;;;24.30;68.20;;;;;;5076673;28;19931;-69
2022/08/03 07:11:13;;;;;;;;;;;24.30;68.20;;;;;;5095792;28;19919;-69
2022/08/03 07:13:40;;;;;;;;;;;24.40;68.00;;;;;;5095341;28;19908;-69
2022/08/03 07:16:05;;;;;;;;;;;24.40;67.50;;;;;;5057896;28;20382;-69
2022/08/03 07:18:31;;;;;;;;;;;24.40;67.60;;;;;;5084202;28;19916;-70
2022/08/03 07:20:57;;;;;;;;;;;24.40;67.80;;;;;;5067110;28;19920;-70
2022/08/03 07:23:22;;;;;;;;;;;24.50;67.30;;;;;;5080557;28;20364;-70
2022/08/03 07:25:49;;;;;;;;;;;24.50;67.10;;;;;;5080333;28;19927;-81
2022/08/03 07:28:15;;;;;;;;;;;24.50;67.10;;;;;;5084737;28;19927;-68
2022/08/03 07:30:40;;;;;;;;;;;24.60;67.00;;;;;;5071354;28;19932;-67
2022/08/03 07:33:06;;;;;;;;;;;24.70;66.80;;;;;;5077322;28;19920;-67
2022/08/03 07:35:31;;;;;;;;;;;24.80;66.40;;;;;;5079812;28;19920;-78
2022/08/03 07:37:57;;;;;;;;;;;24.90;66.30;;;;;;5080391;28;20008;-79
2022/08/03 07:40:22;;;;;;;;;;;25.00;65.90;;;;;;5079759;28;19923;-80
2022/08/03 07:42:48;;;;;;;;;;;25.00;65.70;;;;;;5061373;28;19920;-80
2022/08/03 07:45:13;;;;;;;;;;;25.10;65.70;;;;;;5082672;28;19931;-79
2022/08/03 07:47:39;;;;;;;;;;;25.10;65.60;;;;;;5079823;28;20018;-79
2022/08/03 07:50:05;;;;;;;;;;;25.20;65.40;;;;;;5082693;28;20267;-80
2022/08/03 07:52:50;;;;;;;;;;;25.30;66.10;;;;;;5083098;28;20046;-80
2022/08/03 07:55:16;;;;;;;;;;;25.40;65.10;;;;;;5073298;28;19925;-79
2022/08/03 07:57:42;;;;;;;;;;;25.50;64.40;;;;;;5082682;28;20569;-80
2022/08/03 08:00:12;;;;;;;;;;;25.50;64.60;;;;;;5085976;28;19961;-79
2022/08/03 08:02:38;;;;;;;;;;;25.50;64.20;;;;;;5087737;28;20168;-79
2022/08/03 08:05:04;;;;;;;;;;;25.50;64.20;;;;;;5080413;28;19935;-79
2022/08/03 08:07:30;;;;;;;;;;;25.60;63.80;;;;;;5101979;28;19912;-79
2022/08/03 08:09:55;;;;;;;;;;;25.70;63.80;;;;;;5102954;28;19920;-79
2022/08/03 08:12:21;;;;;;;;;;;25.70;63.60;;;;;;5094029;28;19920;-79
2022/08/03 08:14:46;;;;;;;;;;;25.80;63.60;;;;;;5090573;28;19920;-79
2022/08/03 08:17:12;;;;;;;;;;;25.80;63.00;;;;;;5074922;28;19977;-79
2022/08/03 08:19:38;;;;;;;;;;;25.90;63.20;;;;;;5086764;28;19915;-79
2022/08/03 08:22:04;;;;;;;;;;;25.90;63.10;;;;;;5090999;28;19981;-79
2022/08/03 08:24:30;;;;;;;;;;;25.90;62.90;;;;;;5090317;28;19926;-80
2022/08/03 08:26:55;;;;;;;;;;;26.00;62.60;;;;;;5085097;28;19921;-70
2022/08/03 08:29:22;;;;;;;;;;;26.00;62.70;;;;;;5067858;28;19987;-69
2022/08/03 08:31:48;;;;;;;;;;;26.10;62.60;;;;;;5083323;28;19920;-80
2022/08/03 08:34:14;;;;;;;;;;;26.30;62.60;;;;;;5085589;28;19924;-80
2022/08/03 08:36:40;;;;;;;;;;;26.40;62.20;;;;;;5081610;28;20335;-80
2022/08/03 08:39:06;;;;;;;;;;;26.60;62.10;;;;;;5087097;28;20007;-80
2022/08/03 08:41:34;;;;;;;;;;;26.70;61.50;;;;;;5087054;28;20558;-80
2022/08/03 08:44:00;;;;;;;;;;;26.70;60.90;;;;;;5083347;28;20431;-80
2022/08/03 08:46:28;;;;;;;;;;;26.70;60.40;;;;;;5081011;28;19927;-80
2022/08/03 08:48:54;;;;;;;;;;;26.80;60.20;;;;;;5086640;28;20003;-80
2022/08/03 08:51:21;;;;;;;;;;;26.90;59.90;;;;;;5082093;28;20011;-79
2022/08/03 08:53:49;;;;;;;;;;;26.90;59.80;;;;;;5090882;28;19916;-79
2022/08/03 08:56:15;;;;;;;;;;;26.90;58.90;;;;;;5086549;28;19912;-80
2022/08/03 08:58:47;;;;;;;;;;;26.90;58.80;;;;;;5086241;28;19956;-80
2022/08/03 09:01:13;;;;;;;;;;;27.00;58.80;;;;;;5084498;28;19923;-80
2022/08/03 09:03:39;;;;;;;;;;;27.10;58.70;;;;;;5083598;28;20114;-80
2022/08/03 09:06:05;;;;;;;;;;;27.20;58.70;;;;;;5086376;28;19912;-80
2022/08/03 09:08:32;;;;;;;;;;;27.30;58.40;;;;;;5072882;28;19923;-81
2022/08/03 09:10:58;;;;;;;;;;;27.40;58.60;;;;;;5099383;28;20278;-80
2022/08/03 09:13:23;;;;;;;;;;;27.50;58.40;;;;;;5079946;28;19981;-80
2022/08/03 09:16:07;;;;;;;;;;;27.70;58.30;;;;;;5079368;28;19912;-80
2022/08/03 09:18:33;;;;;;;;;;;27.80;58.00;;;;;;5097385;28;19912;-80
2022/08/03 09:21:12;;;;;;;;;;;27.90;57.30;;;;;;5077461;28;19992;-80
2022/08/03 09:24:03;;;;;;;;;;;28.00;56.90;;;;;;5085838;28;19921;-80
2022/08/03 09:26:30;;;;;;;;;;;28.00;56.40;;;;;;5080016;28;19916;-80
2022/08/03 09:29:00;;;;;;;;;;;28.00;56.30;;;;;;5092637;28;19918;-71
2022/08/03 09:31:29;;;;;;;;;;;28.00;56.30;;;;;;5089136;28;19920;-71
2022/08/03 09:33:58;;;;;;;;;;;28.10;56.30;;;;;;5089658;28;20355;-71
2022/08/03 09:36:37;;;;;;;;;;;28.20;55.70;;;;;;5090238;28;19959;-71
2022/08/03 09:39:10;;;;;;;;;;;28.30;55.70;;;;;;5085519;28;20382;-71
2022/08/03 09:41:36;;;;;;;;;;;28.40;55.20;;;;;;5089597;28;19924;-71
2022/08/03 09:44:02;;;;;;;;;;;28.50;55.30;;;;;;5088858;28;19919;-74
2022/08/03 09:46:30;;;;;;;;;;;28.60;55.00;;;;;;5093538;28;19908;-74
2022/08/03 09:49:11;;;;;;;;;;;28.60;54.50;;;;;;5091216;28;19920;-75
2022/08/03 09:51:37;;;;;;;;;;;28.70;54.30;;;;;;5093598;28;19924;-74
2022/08/03 09:54:03;;;;;;;;;;;28.60;54.10;;;;;;5088834;28;20256;-74
2022/08/03 09:56:41;;;;;;;;;;;28.70;55.00;;;;;;5082675;28;19913;-73
2022/08/03 09:59:07;;;;;;;;;;;28.70;54.10;;;;;;5088687;28;19917;-74
2022/08/03 10:01:34;;;;;;;;;;;28.70;53.90;;;;;;5088261;28;19942;-70
2022/08/03 10:03:59;;;;;;;;;;;28.80;54.00;;;;;;5085753;28;19912;-74
2022/08/03 10:06:25;;;;;;;;;;;28.80;53.90;;;;;;5089649;28;19919;-70
2022/08/03 10:09:11;;;;;;;;;;;28.90;54.10;;;;;;5091900;28;19991;-74
2022/08/03 10:11:37;;;;;;;;;;;29.00;54.10;;;;;;5091905;28;19916;-74
2022/08/03 10:14:04;;;;;;;;;;;29.10;52.80;;;;;;5090687;28;19911;-70
2022/08/03 10:16:39;;;;;;;;;;;29.10;53.20;;;;;;5094411;28;19969;-70
2022/08/03 10:19:05;;;;;;;;;;;29.20;53.00;;;;;;5094756;28;20363;-75
2022/08/03 10:21:32;;;;;;;;;;;29.30;53.20;;;;;;5085778;28;19927;-70
2022/08/03 10:23:58;;;;;;;;;;;29.50;52.80;;;;;;5092051;28;19927;-73
2022/08/03 10:26:25;;;;;;;;;;;29.70;52.70;;;;;;5091613;28;19924;-71
2022/08/03 10:28:52;;;;;;;;;;;29.90;52.70;;;;;;5095412;28;20404;-75
2022/08/03 10:31:19;;;;;;;;;;;29.90;51.40;;;;;;5085301;28;19916;-71
2022/08/03 10:33:47;;;;;;;;;;;30.00;51.30;;;;;;5084623;28;19915;-71
2022/08/03 10:36:13;;;;;;;;;;;30.10;50.80;;;;;;5087628;28;19912;-71
2022/08/03 10:38:42;;;;;;;;;;;30.30;51.10;;;;;;5097283;28;19909;-71
2022/08/03 10:41:08;;;;;;;;;;;30.40;50.60;;;;;;5095736;28;19960;-74
2022/08/03 10:43:44;;;;;;;;;;;30.60;50.70;;;;;;5095054;28;19912;-71
2022/08/03 10:46:10;;;;;;;;;;;30.70;49.70;;;;;;5084553;28;19912;-74
2022/08/03 10:48:36;;;;;;;;;;;30.80;50.10;;;;;;5090873;28;19972;-75
2022/08/03 10:51:02;;;;;;;;;;;30.90;48.90;;;;;;5085464;28;19932;-74
2022/08/03 10:53:35;;;;;;;;;;;31.00;48.20;;;;;;5092942;28;20473;-74
2022/08/03 10:58:45;;;;;;;;;;;31.00;48.30;;;;;;5091274;28;20418;-71
2022/08/03 11:01:11;;;;;;;;;;;31.00;48.00;;;;;;5097166;28;20019;-73
2022/08/03 11:03:52;;;;;;;;;;;31.20;49.20;;;;;;5100806;28;20434;-74
2022/08/03 11:06:23;;;;;;;;;;;31.30;47.10;;;;;;5090263;28;19920;-74
2022/08/03 11:08:49;;;;;;;;;;;31.40;47.40;;;;;;5090340;28;19916;-74
2022/08/03 11:11:17;;;;;;;;;;;31.50;47.70;;;;;;5090117;28;20274;-73
2022/08/03 11:13:56;;;;;;;;;;;31.60;47.00;;;;;;5095244;28;19939;-75
2022/08/03 11:16:22;;;;;;;;;;;31.70;46.60;;;;;;5095698;28;19922;-74
2022/08/03 11:18:58;;;;;;;;;;;31.80;45.50;;;;;;5102529;28;19920;-74
2022/08/03 11:21:42;;;;;;;;;;;31.80;45.30;;;;;;5098986;28;19931;-74
2022/08/03 11:24:08;;;;;;;;;;;31.90;45.90;;;;;;5097162;28;20264;-74
2022/08/03 11:26:34;;;;;;;;;;;32.00;45.40;;;;;;5091373;28;19970;-75
2022/08/03 11:29:32;;;;;;;;;;;32.00;44.80;;;;;;5087032;28;19960;-74
2022/08/03 11:31:57;;;;;;;;;;;32.10;45.30;;;;;;5039056;28;20007;-71
2022/08/03 11:34:23;;;;;;;;;;;32.20;44.90;;;;;;5091423;28;19994;-71
2022/08/03 11:37:07;;;;;;;;;;;32.30;44.40;;;;;;5087046;28;19942;-71
2022/08/03 11:39:39;;;;;;;;;;;32.40;44.50;;;;;;5094566;28;20116;-71
2022/08/03 11:42:23;;;;;;;;;;;32.40;43.30;;;;;;5086158;28;20290;-71
2022/08/03 11:44:49;;;;;;;;;;;32.40;43.50;;;;;;5085037;28;20452;-71
2022/08/03 11:47:16;;;;;;;;;;;32.60;42.80;;;;;;5089515;28;19916;-71
2022/08/03 11:49:46;;;;;;;;;;;32.70;43.10;;;;;;5092847;28;19991;-71
2022/08/03 11:52:11;;;;;;;;;;;32.80;42.70;;;;;;5090259;28;20630;-71
2022/08/03 11:54:37;;;;;;;;;;;32.90;43.00;;;;;;5092374;28;19934;-74
2022/08/03 11:57:03;;;;;;;;;;;33.10;43.60;;;;;;5087751;28;19912;-74
2022/08/03 11:59:32;;;;;;;;;;;33.40;43.90;;;;;;5083084;28;19939;-74
2022/08/03 12:02:11;;;;;;;;;;;33.70;42.10;;;;;;5084928;28;19916;-74
2022/08/03 12:04:52;;;;;;;;;;;33.70;41.40;;;;;;5091258;28;20722;-74
2022/08/03 12:07:17;;;;;;;;;;;33.70;40.90;;;;;;5097776;28;19912;-74
2022/08/03 12:10:00;;;;;;;;;;;33.60;41.60;;;;;;5102426;28;19922;-71
2022/08/03 12:12:26;;;;;;;;;;;33.60;40.40;;;;;;5101886;28;19916;-74
2022/08/03 12:14:51;;;;;;;;;;;33.60;41.20;;;;;;5098972;28;20385;-74
2022/08/03 12:17:17;;;;;;;;;;;33.70;40.60;;;;;;5103226;28;19916;-73
2022/08/03 12:19:42;;;;;;;;;;;33.80;40.20;;;;;;5097268;28;19927;-75
2022/08/03 12:22:08;;;;;;;;;;;33.90;40.60;;;;;;5096878;28;20111;-74
2022/08/03 12:24:41;;;;;;;;;;;34.10;39.80;;;;;;5093297;27;20715;-75
2022/08/03 12:27:06;;;;;;;;;;;34.10;39.30;;;;;;5103906;28;19920;-74
2022/08/03 12:29:32;;;;;;;;;;;34.10;40.00;;;;;;5092928;28;20667;-74
2022/08/03 12:31:57;;;;;;;;;;;34.20;39.50;;;;;;5095462;28;20339;-74
2022/08/03 12:34:23;;;;;;;;;;;34.40;39.30;;;;;;5094418;28;19926;-74
2022/08/03 12:36:54;;;;;;;;;;;34.30;38.90;;;;;;5094331;28;19916;-76
2022/08/03 12:39:25;;;;;;;;;;;34.30;39.40;;;;;;5101510;28;20363;-79
2022/08/03 12:41:54;;;;;;;;;;;34.30;39.40;;;;;;5091876;28;19970;-70
2022/08/03 12:44:28;;;;;;;;;;;34.30;39.80;;;;;;5081046;28;20461;-70
2022/08/03 12:46:56;;;;;;;;;;;34.50;40.10;;;;;;5089828;28;19923;-70
2022/08/03 12:49:21;;;;;;;;;;;34.80;39.50;;;;;;5084890;28;19923;-70
2022/08/03 12:51:50;;;;;;;;;;;34.90;39.20;;;;;;5075542;28;19923;-80
2022/08/03 12:54:17;;;;;;;;;;;35.00;39.00;;;;;;5097431;28;20459;-79
2022/08/03 12:57:02;;;;;;;;;;;35.20;37.90;;;;;;5096881;28;19959;-79
2022/08/03 12:59:32;;;;;;;;;;;35.20;37.80;;;;;;5107197;28;19919;-80
2022/08/03 13:01:58;;;;;;;;;;;35.20;38.70;;;;;;5101867;28;19916;-80
2022/08/03 13:04:28;;;;;;;;;;;35.30;38.30;;;;;;5093380;28;19912;-71
2022/08/03 13:07:07;;;;;;;;;;;35.40;37.70;;;;;;5099170;28;20373;-79
2022/08/03 13:09:45;;;;;;;;;;;35.30;37.70;;;;;;5098442;28;19927;-79
2022/08/03 13:12:31;;;;;;;;;;;35.30;37.00;;;;;;5096310;28;19919;-79
2022/08/03 13:14:58;;;;;;;;;;;35.30;37.50;;;;;;5090124;28;19918;-78
2022/08/03 13:17:24;;;;;;;;;;;35.30;37.20;;;;;;5089375;28;20362;-79
2022/08/03 13:19:50;;;;;;;;;;;35.20;37.20;;;;;;5086146;28;19920;-79
2022/08/03 13:22:20;;;;;;;;;;;35.20;37.80;;;;;;5087222;28;20432;-79
2022/08/03 13:24:46;;;;;;;;;;;35.30;37.40;;;;;;5094887;28;20805;-79
2022/08/03 13:27:13;;;;;;;;;;;35.40;37.60;;;;;;5092715;28;19961;-81
2022/08/03 13:29:38;;;;;;;;;;;35.60;37.80;;;;;;5094957;28;19923;-81
2022/08/03 13:32:04;;;;;;;;;;;35.70;37.40;;;;;;5084010;28;19917;-80
2022/08/03 13:34:30;;;;;;;;;;;35.80;37.30;;;;;;5093416;28;20275;-80
2022/08/03 13:36:56;;;;;;;;;;;35.90;37.40;;;;;;5074019;28;19917;-80
2022/08/03 13:39:21;;;;;;;;;;;36.10;37.50;;;;;;5083729;28;20274;-80
2022/08/03 13:41:47;;;;;;;;;;;36.10;37.60;;;;;;5091655;28;19916;-80
2022/08/03 13:44:13;;;;;;;;;;;36.10;37.80;;;;;;5094111;28;20274;-80
2022/08/03 13:46:39;;;;;;;;;;;36.00;38.00;;;;;;5096046;28;19912;-80
2022/08/03 13:49:05;;;;;;;;;;;35.80;37.80;;;;;;5103236;28;19918;-80
2022/08/03 13:51:31;;;;;;;;;;;35.70;38.20;;;;;;5090225;28;20298;-80
2022/08/03 13:53:58;;;;;;;;;;;35.70;38.70;;;;;;5093484;28;20363;-80
2022/08/03 13:56:26;;;;;;;;;;;35.70;38.70;;;;;;5109089;27;20069;-81
2022/08/03 13:58:52;;;;;;;;;;;35.90;38.70;;;;;;5106197;28;20378;-80
2022/08/03 14:01:18;;;;;;;;;;;35.80;38.70;;;;;;5112752;28;19974;-79
2022/08/03 14:03:45;;;;;;;;;;;35.90;38.50;;;;;;5105244;28;19947;-80
2022/08/03 14:06:10;;;;;;;;;;;35.80;38.50;;;;;;5110465;28;20386;-80
2022/08/03 14:08:36;;;;;;;;;;;35.80;38.90;;;;;;5108289;28;19927;-80
2022/08/03 14:11:02;;;;;;;;;;;35.70;39.00;;;;;;5109202;28;19920;-80
2022/08/03 14:13:28;;;;;;;;;;;35.90;39.30;;;;;;5107518;28;19919;-80
2022/08/03 14:15:54;;;;;;;;;;;36.10;38.70;;;;;;5095274;28;19980;-79
2022/08/03 14:18:20;;;;;;;;;;;35.90;38.90;;;;;;5103217;28;20007;-80
2022/08/03 14:20:46;;;;;;;;;;;35.70;39.00;;;;;;5094081;28;20019;-79
2022/08/03 14:23:11;;;;;;;;;;;35.50;39.20;;;;;;5103754;28;19915;-81
2022/08/03 14:25:37;;;;;;;;;;;35.30;39.90;;;;;;5094395;27;20610;-81
2022/08/03 14:28:03;;;;;;;;;;;35.40;39.90;;;;;;5080041;28;19951;-71